sensor_id;sensor_type;location;lat;lon;timestamp;pressure;altitude;pressure_sealevel;temperature;humidity
2397;BME280;1209;48.410;9.054;2022-09-21T00:01:12;96960.72;;;10.34;100.00
2397;BME280;1209;48.410;9.054;2022-09-21T00:03:38;96954.38;;;10.36;100.00
2397;BME280;1209;48.410;9.054;2022-09-21T00:06:07;96960.72;;;10.34;100.00
2397;BME280;1209;48.410;9.054;2022-09-21T00:08:33;96962.16;;;10.02;100.00
2397;BME280;1209;48.410;9.054;2022-09-21T00:10:59;96958.94;;;10.08;100.00
2397;BME280;1209;48.410;9.054;2022-09-21T00:13:25;96957.31;;;10.07;100.00
2397;BME280;1209;48.410;9.054;2022-09-21T00:15:53;96957.41;;;9.98;100.00
2397;BME280;1209;48.410;9.054;2022-09-21T00:18:18;96963.16;;;10.01;100.00
2397;BME280;1209;48.410;9.054;2022-09-21T00:20:45;96954.06;;;9.88;100.00
2397;BME280;1209;48.410;9.054;2022-09-21T00:23:10;96961.38;;;9.84;100.00
2397;BME280;1209;48.410;9.054;2022-09-21T00:25:36;96954.81;;;9.80;100.00
2397;BME280;1209;48.410;9.054;2022-09-21T00:28:01;96953.50;;;9.76;100.00
2397;BME280;1209;48.410;9.054;2022-09-21T00:30:26;96954.63;;;9.73;100.00
2397;BME280;1209;48.410;9.054;2022-09-21T00:32:52;96956.47;;;9.81;100.00
2397;BME280;1209;48.410;9.054;2022-09-21T00:35:18;96955.34;;;9.84;100.00
2397;BME280;1209;48.410;9.054;2022-09-21T00:37:43;96958.56;;;9.77;100.00
2397;BME280;1209;48.410;9.054;2022-09-21T00:40:09;96954.19;;;9.60;100.00
2397;BME280;1209;48.410;9.054;2022-09-21T00:42:34;96954.97;;;9.53;100.00
2397;BME280;1209;48.410;9.054;2022-09-21T00:45:00;96960.19;;;9.53;100.00
2397;BME280;1209;48.410;9.054;2022-09-21T00:47:37;96950.94;;;9.05;100.00
2397;BME280;1209;48.410;9.054;2022-09-21T00:50:23;96948.41;;;9.13;100.00
2397;BME280;1209;48.410;9.054;2022-09-21T00:52:52;96948.84;;;9.26;100.00
2397;BME280;1209;48.410;9.054;2022-09-21T00:55:47;96962.03;;;9.25;100.00
2397;BME280;1209;48.410;9.054;2022-09-21T00:58:16;96950.09;;;9.40;100.00
2397;BME280;1209;48.410;9.054;2022-09-21T01:00:44;96954.81;;;9.36;100.00
2397;BME280;1209;48.410;9.054;2022-09-21T01:03:11;96957.03;;;9.31;100.00
2397;BME280;1209;48.410;9.054;2022-09-21T01:05:37;96955.19;;;9.24;100.00
2397;BME280;1209;48.410;9.054;2022-09-21T01:08:03;96948.72;;;9.10;100.00
2397;BME280;1209;48.410;9.054;2022-09-21T01:10:40;96957.41;;;9.01;100.00
2397;BME280;1209;48.410;9.054;2022-09-21T01:16:10;96949.13;;;8.88;100.00
2397;BME280;1209;48.410;9.054;2022-09-21T01:22:41;96951.94;;;8.76;100.00
2397;BME280;1209;48.410;9.054;2022-09-21T01:27:52;96957.09;;;8.59;100.00
2397;BME280;1209;48.410;9.054;2022-09-21T01:30:22;96955.16;;;8.33;100.00
2397;BME280;1209;48.410;9.054;2022-09-21T01:33:08;96946.63;;;8.41;100.00
2397;BME280;1209;48.410;9.054;2022-09-21T01:35:40;96956.13;;;8.60;100.00
2397;BME280;1209;48.410;9.054;2022-09-21T01:38:12;96956.97;;;8.60;100.00
2397;BME280;1209;48.410;9.054;2022-09-21T01:40:46;96959.34;;;8.44;100.00
2397;BME280;1209;48.410;9.054;2022-09-21T01:43:19;96960.22;;;8.35;100.00
2397;BME280;1209;48.410;9.054;2022-09-21T01:45:48;96962.91;;;8.43;100.00
2397;BME280;1209;48.410;9.054;2022-09-21T01:48:17;96964.94;;;8.49;100.00
2397;BME280;1209;48.410;9.054;2022-09-21T01:50:48;96964.13;;;8.48;100.00
2397;BME280;1209;48.410;9.054;2022-09-21T01:53:19;96968.25;;;8.41;100.00
2397;BME280;1209;48.410;9.054;2022-09-21T01:55:49;96963.72;;;8.43;100.00
2397;BME280;1209;48.410;9.054;2022-09-21T01:58:29;96967.81;;;8.46;100.00
2397;BME280;1209;48.410;9.054;2022-09-21T02:00:57;96971.59;;;8.24;100.00
2397;BME280;1209;48.410;9.054;2022-09-21T02:03:28;96969.16;;;8.03;100.00
2397;BME280;1209;48.410;9.054;2022-09-21T02:05:55;96971.78;;;8.13;100.00
2397;BME280;1209;48.410;9.054;2022-09-21T02:08:23;96966.09;;;8.37;100.00
2397;BME280;1209;48.410;9.054;2022-09-21T02:10:51;96975.38;;;8.39;100.00
2397;BME280;1209;48.410;9.054;2022-09-21T02:13:17;96966.22;;;8.35;100.00
2397;BME280;1209;48.410;9.054;2022-09-21T02:20:56;96971.63;;;8.14;100.00
2397;BME280;1209;48.410;9.054;2022-09-21T02:23:29;96961.13;;;8.06;100.00
2397;BME280;1209;48.410;9.054;2022-09-21T02:26:02;96972.31;;;8.16;100.00
2397;BME280;1209;48.410;9.054;2022-09-21T02:31:25;96958.22;;;8.00;100.00
2397;BME280;1209;48.410;9.054;2022-09-21T02:34:03;96960.06;;;7.80;100.00
2397;BME280;1209;48.410;9.054;2022-09-21T02:36:38;96960.38;;;7.67;100.00
2397;BME280;1209;48.410;9.054;2022-09-21T02:39:15;96955.47;;;7.35;100.00
2397;BME280;1209;48.410;9.054;2022-09-21T02:42:11;96963.38;;;7.53;100.00
2397;BME280;1209;48.410;9.054;2022-09-21T02:44:41;96963.94;;;7.37;100.00
2397;BME280;1209;48.410;9.054;2022-09-21T02:47:16;96959.97;;;7.43;100.00
2397;BME280;1209;48.410;9.054;2022-09-21T02:49:47;96960.66;;;7.35;100.00
2397;BME280;1209;48.410;9.054;2022-09-21T02:52:16;96952.88;;;7.35;100.00
2397;BME280;1209;48.410;9.054;2022-09-21T02:54:44;96959.69;;;7.17;100.00
2397;BME280;1209;48.410;9.054;2022-09-21T02:57:13;96953.81;;;7.44;100.00
2397;BME280;1209;48.410;9.054;2022-09-21T02:59:40;96949.84;;;7.49;100.00
2397;BME280;1209;48.410;9.054;2022-09-21T03:02:08;96952.84;;;7.64;100.00
2397;BME280;1209;48.410;9.054;2022-09-21T03:04:33;96957.78;;;7.67;100.00
2397;BME280;1209;48.410;9.054;2022-09-21T03:06:59;96960.50;;;7.66;100.00
2397;BME280;1209;48.410;9.054;2022-09-21T03:09:24;96956.00;;;7.58;100.00
2397;BME280;1209;48.410;9.054;2022-09-21T03:11:50;96947.94;;;7.61;100.00
2397;BME280;1209;48.410;9.054;2022-09-21T03:14:16;96959.81;;;7.54;100.00
2397;BME280;1209;48.410;9.054;2022-09-21T03:16:43;96953.13;;;7.51;100.00
2397;BME280;1209;48.410;9.054;2022-09-21T03:19:09;96945.34;;;7.42;100.00
2397;BME280;1209;48.410;9.054;2022-09-21T03:21:34;96945.06;;;7.25;100.00
2397;BME280;1209;48.410;9.054;2022-09-21T03:24:00;96953.13;;;7.42;100.00
2397;BME280;1209;48.410;9.054;2022-09-21T03:26:26;96949.31;;;7.36;100.00
2397;BME280;1209;48.410;9.054;2022-09-21T03:28:51;96953.13;;;7.32;100.00
2397;BME280;1209;48.410;9.054;2022-09-21T03:31:19;96950.25;;;7.35;100.00
2397;BME280;1209;48.410;9.054;2022-09-21T03:33:44;96952.19;;;7.33;100.00
2397;BME280;1209;48.410;9.054;2022-09-21T03:36:09;96958.59;;;7.29;100.00
2397;BME280;1209;48.410;9.054;2022-09-21T03:38:35;96957.38;;;7.33;100.00
2397;BME280;1209;48.410;9.054;2022-09-21T03:41:02;96962.44;;;7.25;100.00
2397;BME280;1209;48.410;9.054;2022-09-21T03:43:27;96962.44;;;7.25;100.00
2397;BME280;1209;48.410;9.054;2022-09-21T03:45:53;96959.28;;;7.21;100.00
2397;BME280;1209;48.410;9.054;2022-09-21T03:48:18;96963.81;;;7.19;100.00
2397;BME280;1209;48.410;9.054;2022-09-21T03:50:43;96975.38;;;7.06;100.00
2397;BME280;1209;48.410;9.054;2022-09-21T03:53:10;96976.47;;;7.03;100.00
2397;BME280;1209;48.410;9.054;2022-09-21T03:55:36;96976.88;;;6.99;100.00
2397;BME280;1209;48.410;9.054;2022-09-21T03:58:02;96964.19;;;6.95;100.00
2397;BME280;1209;48.410;9.054;2022-09-21T04:00:28;96969.22;;;6.87;100.00
2397;BME280;1209;48.410;9.054;2022-09-21T04:02:53;96966.63;;;6.87;100.00
2397;BME280;1209;48.410;9.054;2022-09-21T04:05:19;96972.91;;;6.85;100.00
2397;BME280;1209;48.410;9.054;2022-09-21T04:07:45;96973.72;;;6.85;100.00
2397;BME280;1209;48.410;9.054;2022-09-21T04:10:13;96974.50;;;6.67;100.00
2397;BME280;1209;48.410;9.054;2022-09-21T04:12:39;96976.97;;;6.68;100.00
2397;BME280;1209;48.410;9.054;2022-09-21T04:15:09;96976.06;;;6.88;100.00
2397;BME280;1209;48.410;9.054;2022-09-21T04:17:35;96980.00;;;6.83;100.00
2397;BME280;1209;48.410;9.054;2022-09-21T04:20:00;96976.72;;;6.81;100.00
2397;BME280;1209;48.410;9.054;2022-09-21T04:22:26;96974.78;;;6.63;100.00
2397;BME280;1209;48.410;9.054;2022-09-21T04:24:51;96980.00;;;6.73;100.00
2397;BME280;1209;48.410;9.054;2022-09-21T04:27:17;96984.38;;;6.82;100.00
2397;BME280;1209;48.410;9.054;2022-09-21T04:29:42;96988.22;;;6.88;100.00
2397;BME280;1209;48.410;9.054;2022-09-21T04:32:09;96983.69;;;6.80;100.00
2397;BME280;1209;48.410;9.054;2022-09-21T04:34:34;96985.59;;;6.78;100.00
2397;BME280;1209;48.410;9.054;2022-09-21T04:37:01;96987.66;;;6.75;100.00
2397;BME280;1209;48.410;9.054;2022-09-21T04:39:26;96983.97;;;6.77;100.00
2397;BME280;1209;48.410;9.054;2022-09-21T04:41:52;96983.66;;;6.71;100.00
2397;BME280;1209;48.410;9.054;2022-09-21T04:44:18;96987.50;;;6.67;100.00
2397;BME280;1209;48.410;9.054;2022-09-21T04:46:43;96992.94;;;6.63;100.00
2397;BME280;1209;48.410;9.054;2022-09-21T04:49:09;96992.34;;;6.60;100.00
2397;BME280;1209;48.410;9.054;2022-09-21T04:51:35;96994.41;;;6.56;100.00
2397;BME280;1209;48.410;9.054;2022-09-21T04:54:01;96990.22;;;6.35;100.00
2397;BME280;1209;48.410;9.054;2022-09-21T04:56:26;96999.13;;;6.42;100.00
2397;BME280;1209;48.410;9.054;2022-09-21T04:58:51;96998.22;;;6.52;100.00
2397;BME280;1209;48.410;9.054;2022-09-21T05:01:16;97003.41;;;6.52;100.00
2397;BME280;1209;48.410;9.054;2022-09-21T05:03:42;97009.34;;;6.34;100.00
2397;BME280;1209;48.410;9.054;2022-09-21T05:06:09;96998.19;;;6.43;100.00
2397;BME280;1209;48.410;9.054;2022-09-21T05:08:38;97005.78;;;6.35;100.00
2397;BME280;1209;48.410;9.054;2022-09-21T05:11:23;97001.56;;;6.34;100.00
2397;BME280;1209;48.410;9.054;2022-09-21T05:13:49;97004.31;;;6.42;100.00
2397;BME280;1209;48.410;9.054;2022-09-21T05:16:15;97000.50;;;6.46;100.00
2397;BME280;1209;48.410;9.054;2022-09-21T05:18:41;97006.91;;;6.42;100.00
2397;BME280;1209;48.410;9.054;2022-09-21T05:21:06;97005.50;;;6.28;100.00
2397;BME280;1209;48.410;9.054;2022-09-21T05:23:32;97012.59;;;6.05;100.00
2397;BME280;1209;48.410;9.054;2022-09-21T05:25:58;97015.22;;;6.36;100.00
2397;BME280;1209;48.410;9.054;2022-09-21T05:28:24;97019.31;;;6.38;100.00
2397;BME280;1209;48.410;9.054;2022-09-21T05:33:21;97027.97;;;6.48;100.00
2397;BME280;1209;48.410;9.054;2022-09-21T05:35:58;97017.28;;;6.42;100.00
2397;BME280;1209;48.410;9.054;2022-09-21T05:38:26;97021.25;;;6.46;100.00
2397;BME280;1209;48.410;9.054;2022-09-21T05:40:52;97026.03;;;6.41;100.00
2397;BME280;1209;48.410;9.054;2022-09-21T05:43:18;97023.97;;;6.44;100.00
2397;BME280;1209;48.410;9.054;2022-09-21T05:45:45;97018.78;;;6.44;100.00
2397;BME280;1209;48.410;9.054;2022-09-21T05:48:25;97021.47;;;6.33;100.00
2397;BME280;1209;48.410;9.054;2022-09-21T05:51:08;97017.53;;;6.39;100.00
2397;BME280;1209;48.410;9.054;2022-09-21T05:53:54;97027.88;;;6.29;100.00
2397;BME280;1209;48.410;9.054;2022-09-21T06:02:34;97021.97;;;6.17;100.00
2397;BME280;1209;48.410;9.054;2022-09-21T06:05:12;97028.13;;;6.05;100.00
2397;BME280;1209;48.410;9.054;2022-09-21T06:07:38;97025.72;;;6.34;100.00
2397;BME280;1209;48.410;9.054;2022-09-21T06:10:04;97023.59;;;6.49;100.00
2397;BME280;1209;48.410;9.054;2022-09-21T06:12:29;97030.59;;;6.58;100.00
2397;BME280;1209;48.410;9.054;2022-09-21T06:14:54;97027.94;;;6.69;100.00
2397;BME280;1209;48.410;9.054;2022-09-21T06:17:21;97023.84;;;6.76;100.00
2397;BME280;1209;48.410;9.054;2022-09-21T06:19:46;97016.47;;;6.81;100.00
2397;BME280;1209;48.410;9.054;2022-09-21T06:22:11;97018.25;;;6.81;100.00
2397;BME280;1209;48.410;9.054;2022-09-21T06:24:36;97023.34;;;6.92;100.00
2397;BME280;1209;48.410;9.054;2022-09-21T06:27:02;97021.72;;;7.01;100.00
2397;BME280;1209;48.410;9.054;2022-09-21T06:29:27;97025.00;;;7.03;100.00
2397;BME280;1209;48.410;9.054;2022-09-21T06:31:52;97029.66;;;7.09;100.00
2397;BME280;1209;48.410;9.054;2022-09-21T06:34:17;97031.19;;;7.11;100.00
2397;BME280;1209;48.410;9.054;2022-09-21T06:36:43;97023.53;;;7.19;100.00
2397;BME280;1209;48.410;9.054;2022-09-21T06:39:10;97031.19;;;7.21;100.00
2397;BME280;1209;48.410;9.054;2022-09-21T06:41:35;97026.84;;;7.31;100.00
2397;BME280;1209;48.410;9.054;2022-09-21T06:44:00;97027.09;;;7.38;100.00
2397;BME280;1209;48.410;9.054;2022-09-21T06:46:26;97027.53;;;7.33;100.00
2397;BME280;1209;48.410;9.054;2022-09-21T06:48:51;97028.06;;;7.17;100.00
2397;BME280;1209;48.410;9.054;2022-09-21T06:51:16;97027.84;;;7.00;100.00
2397;BME280;1209;48.410;9.054;2022-09-21T06:53:42;97031.47;;;7.18;100.00
2397;BME280;1209;48.410;9.054;2022-09-21T06:56:08;97032.44;;;7.26;100.00
2397;BME280;1209;48.410;9.054;2022-09-21T06:58:34;97032.44;;;7.46;100.00
2397;BME280;1209;48.410;9.054;2022-09-21T07:01:12;97031.75;;;7.34;100.00
2397;BME280;1209;48.410;9.054;2022-09-21T07:03:38;97031.06;;;7.42;100.00
2397;BME280;1209;48.410;9.054;2022-09-21T07:06:05;97033.13;;;7.48;100.00
2397;BME280;1209;48.410;9.054;2022-09-21T07:08:31;97028.34;;;7.53;100.00
2397;BME280;1209;48.410;9.054;2022-09-21T07:10:57;97030.41;;;7.59;100.00
2397;BME280;1209;48.410;9.054;2022-09-21T07:13:23;97027.41;;;7.64;100.00
2397;BME280;1209;48.410;9.054;2022-09-21T07:15:48;97035.88;;;7.66;100.00
2397;BME280;1209;48.410;9.054;2022-09-21T07:18:14;97033.28;;;7.75;100.00
2397;BME280;1209;48.410;9.054;2022-09-21T07:20:40;97028.78;;;7.68;100.00
2397;BME280;1209;48.410;9.054;2022-09-21T07:23:13;97023.84;;;7.74;100.00
2397;BME280;1209;48.410;9.054;2022-09-21T07:25:40;97028.06;;;7.85;100.00
2397;BME280;1209;48.410;9.054;2022-09-21T07:28:06;97039.97;;;8.07;100.00
2397;BME280;1209;48.410;9.054;2022-09-21T07:30:31;97037.31;;;8.26;100.00
2397;BME280;1209;48.410;9.054;2022-09-21T07:32:56;97040.41;;;8.49;100.00
2397;BME280;1209;48.410;9.054;2022-09-21T07:35:23;97041.50;;;8.56;100.00
2397;BME280;1209;48.410;9.054;2022-09-21T07:37:48;97041.44;;;8.75;100.00
2397;BME280;1209;48.410;9.054;2022-09-21T07:40:14;97038.56;;;8.96;100.00
2397;BME280;1209;48.410;9.054;2022-09-21T07:42:39;97041.41;;;9.30;100.00
2397;BME280;1209;48.410;9.054;2022-09-21T07:45:05;97047.97;;;9.34;100.00
2397;BME280;1209;48.410;9.054;2022-09-21T07:47:30;97046.41;;;9.41;100.00
2397;BME280;1209;48.410;9.054;2022-09-21T07:49:56;97041.66;;;9.72;100.00
2397;BME280;1209;48.410;9.054;2022-09-21T07:52:21;97046.44;;;9.95;100.00
2397;BME280;1209;48.410;9.054;2022-09-21T07:54:47;97040.50;;;10.10;100.00
2397;BME280;1209;48.410;9.054;2022-09-21T07:57:12;97040.41;;;9.59;100.00
2397;BME280;1209;48.410;9.054;2022-09-21T07:59:57;97042.44;;;9.91;100.00
2397;BME280;1209;48.410;9.054;2022-09-21T08:02:23;97040.34;;;10.56;100.00
2397;BME280;1209;48.410;9.054;2022-09-21T08:04:49;97041.00;;;10.92;100.00
2397;BME280;1209;48.410;9.054;2022-09-21T08:07:14;97040.09;;;11.09;100.00
2397;BME280;1209;48.410;9.054;2022-09-21T08:09:40;97036.94;;;11.48;100.00
2397;BME280;1209;48.410;9.054;2022-09-21T08:12:06;97038.50;;;10.82;100.00
2397;BME280;1209;48.410;9.054;2022-09-21T08:14:33;97034.84;;;11.01;100.00
2397;BME280;1209;48.410;9.054;2022-09-21T08:16:58;97037.69;;;11.24;100.00
2397;BME280;1209;48.410;9.054;2022-09-21T08:19:23;97034.66;;;11.53;100.00
2397;BME280;1209;48.410;9.054;2022-09-21T08:21:50;97033.75;;;11.94;100.00
2397;BME280;1209;48.410;9.054;2022-09-21T08:24:16;97029.09;;;11.72;100.00
2397;BME280;1209;48.410;9.054;2022-09-21T08:26:41;97028.09;;;12.54;100.00
2397;BME280;1209;48.410;9.054;2022-09-21T08:29:06;97032.25;;;12.33;100.00
2397;BME280;1209;48.410;9.054;2022-09-21T08:31:32;97036.47;;;12.42;100.00
2397;BME280;1209;48.410;9.054;2022-09-21T08:33:57;97031.13;;;12.82;100.00
2397;BME280;1209;48.410;9.054;2022-09-21T08:36:23;97040.53;;;12.60;100.00
2397;BME280;1209;48.410;9.054;2022-09-21T08:38:49;97039.00;;;13.21;100.00
2397;BME280;1209;48.410;9.054;2022-09-21T08:44:23;97039.91;;;12.98;100.00
2397;BME280;1209;48.410;9.054;2022-09-21T08:47:14;97042.44;;;12.83;100.00
2397;BME280;1209;48.410;9.054;2022-09-21T08:49:48;97041.06;;;13.42;100.00
2397;BME280;1209;48.410;9.054;2022-09-21T08:52:17;97042.34;;;13.69;100.00
2397;BME280;1209;48.410;9.054;2022-09-21T08:57:16;97043.03;;;13.40;100.00
2397;BME280;1209;48.410;9.054;2022-09-21T08:59:44;97031.03;;;13.92;100.00
2397;BME280;1209;48.410;9.054;2022-09-21T09:05:19;97035.66;;;14.79;100.00
2397;BME280;1209;48.410;9.054;2022-09-21T09:08:05;97030.34;;;13.98;100.00
2397;BME280;1209;48.410;9.054;2022-09-21T09:10:39;97036.47;;;14.51;100.00
2397;BME280;1209;48.410;9.054;2022-09-21T09:13:33;97026.94;;;14.64;100.00
2397;BME280;1209;48.410;9.054;2022-09-21T09:16:34;97031.00;;;15.11;100.00
2397;BME280;1209;48.410;9.054;2022-09-21T09:21:39;97030.84;;;14.98;100.00
2397;BME280;1209;48.410;9.054;2022-09-21T09:24:17;97023.94;;;15.11;100.00
2397;BME280;1209;48.410;9.054;2022-09-21T09:27:01;97022.84;;;15.06;100.00
2397;BME280;1209;48.410;9.054;2022-09-21T09:29:45;97028.06;;;15.35;100.00
2397;BME280;1209;48.410;9.054;2022-09-21T09:32:16;97023.13;;;15.62;100.00
2397;BME280;1209;48.410;9.054;2022-09-21T09:34:52;97027.31;;;14.91;100.00
2397;BME280;1209;48.410;9.054;2022-09-21T09:37:25;97016.41;;;15.44;100.00
2397;BME280;1209;48.410;9.054;2022-09-21T09:39:54;97007.59;;;15.52;100.00
2397;BME280;1209;48.410;9.054;2022-09-21T09:50:28;97005.38;;;16.69;97.67
2397;BME280;1209;48.410;9.054;2022-09-21T09:53:08;97000.16;;;17.30;95.28
2397;BME280;1209;48.410;9.054;2022-09-21T09:55:38;96988.44;;;16.57;100.00
2397;BME280;1209;48.410;9.054;2022-09-21T09:58:20;96992.63;;;16.79;96.32
2397;BME280;1209;48.410;9.054;2022-09-21T10:00:49;96999.56;;;15.75;100.00
2397;BME280;1209;48.410;9.054;2022-09-21T10:03:18;96993.78;;;15.86;100.00
2397;BME280;1209;48.410;9.054;2022-09-21T10:05:44;96991.56;;;16.39;100.00
2397;BME280;1209;48.410;9.054;2022-09-21T10:08:28;96982.78;;;16.60;98.48
2397;BME280;1209;48.410;9.054;2022-09-21T10:10:54;96987.91;;;15.63;100.00
2397;BME280;1209;48.410;9.054;2022-09-21T10:13:28;96988.41;;;15.73;100.00
2397;BME280;1209;48.410;9.054;2022-09-21T10:18:55;96978.59;;;15.88;100.00
2397;BME280;1209;48.410;9.054;2022-09-21T10:21:34;96976.00;;;16.16;100.00
2397;BME280;1209;48.410;9.054;2022-09-21T10:24:04;96974.66;;;16.05;98.52
2397;BME280;1209;48.410;9.054;2022-09-21T10:26:43;96972.75;;;15.93;100.00
2397;BME280;1209;48.410;9.054;2022-09-21T10:31:53;96974.38;;;15.51;100.00
2397;BME280;1209;48.410;9.054;2022-09-21T10:34:20;96971.53;;;16.17;100.00
2397;BME280;1209;48.410;9.054;2022-09-21T10:36:51;96974.13;;;16.73;96.55
2397;BME280;1209;48.410;9.054;2022-09-21T10:39:19;96967.50;;;16.83;93.46
2397;BME280;1209;48.410;9.054;2022-09-21T10:42:05;96965.41;;;17.26;89.52
2397;BME280;1209;48.410;9.054;2022-09-21T10:44:42;96964.63;;;16.78;93.49
2397;BME280;1209;48.410;9.054;2022-09-21T10:50:03;96953.41;;;17.11;96.03
2397;BME280;1209;48.410;9.054;2022-09-21T10:52:41;96943.94;;;16.47;94.54
2397;BME280;1209;48.410;9.054;2022-09-21T10:55:16;96943.19;;;15.69;100.00
2397;BME280;1209;48.410;9.054;2022-09-21T10:57:43;96942.41;;;16.25;97.30
2397;BME280;1209;48.410;9.054;2022-09-21T11:02:51;96954.38;;;15.57;100.00
2397;BME280;1209;48.410;9.054;2022-09-21T11:05:30;96950.50;;;15.31;100.00
2397;BME280;1209;48.410;9.054;2022-09-21T11:13:32;96955.69;;;14.89;100.00
2397;BME280;1209;48.410;9.054;2022-09-21T11:16:17;96946.72;;;14.83;100.00
2397;BME280;1209;48.410;9.054;2022-09-21T11:18:58;96943.31;;;15.04;100.00
2397;BME280;1209;48.410;9.054;2022-09-21T11:21:33;96938.56;;;15.99;99.44
2397;BME280;1209;48.410;9.054;2022-09-21T11:26:45;96936.31;;;15.96;98.37
2397;BME280;1209;48.410;9.054;2022-09-21T11:29:33;96930.75;;;16.47;96.12
2397;BME280;1209;48.410;9.054;2022-09-21T11:48:51;96919.00;;;15.87;94.94
2397;BME280;1209;48.410;9.054;2022-09-21T11:52:02;96910.97;;;15.67;100.00
2397;BME280;1209;48.410;9.054;2022-09-21T11:57:19;96912.84;;;15.73;97.16
2397;BME280;1209;48.410;9.054;2022-09-21T12:00:16;96907.31;;;15.96;94.83
2397;BME280;1209;48.410;9.054;2022-09-21T12:06:09;96909.28;;;16.16;93.97
2397;BME280;1209;48.410;9.054;2022-09-21T12:14:23;96901.91;;;16.39;91.74
2397;BME280;1209;48.410;9.054;2022-09-21T12:17:10;96898.28;;;16.47;90.77
2397;BME280;1209;48.410;9.054;2022-09-21T12:19:50;96897.69;;;16.45;91.19
2397;BME280;1209;48.410;9.054;2022-09-21T12:22:28;96895.91;;;16.17;93.78
2397;BME280;1209;48.410;9.054;2022-09-21T12:24:58;96896.06;;;16.44;93.02
2397;BME280;1209;48.410;9.054;2022-09-21T12:27:31;96895.06;;;16.51;89.99
2397;BME280;1209;48.410;9.054;2022-09-21T12:30:06;96896.47;;;16.47;88.95
2397;BME280;1209;48.410;9.054;2022-09-21T12:35:36;96892.25;;;16.53;90.56
2397;BME280;1209;48.410;9.054;2022-09-21T12:38:16;96889.88;;;16.64;82.03
2397;BME280;1209;48.410;9.054;2022-09-21T12:43:33;96894.00;;;16.74;78.23
2397;BME280;1209;48.410;9.054;2022-09-21T12:46:04;96895.53;;;16.61;78.14
2397;BME280;1209;48.410;9.054;2022-09-21T12:48:34;96889.06;;;16.64;79.11
2397;BME280;1209;48.410;9.054;2022-09-21T12:51:16;96894.16;;;16.65;77.14
2397;BME280;1209;48.410;9.054;2022-09-21T12:53:46;96885.97;;;16.13;75.89
2397;BME280;1209;48.410;9.054;2022-09-21T13:01:46;96886.75;;;16.48;80.16
2397;BME280;1209;48.410;9.054;2022-09-21T13:04:30;96882.78;;;16.65;84.04
2397;BME280;1209;48.410;9.054;2022-09-21T13:09:44;96877.47;;;16.58;79.93
2397;BME280;1209;48.410;9.054;2022-09-21T13:14:47;96873.13;;;16.37;78.70
2397;BME280;1209;48.410;9.054;2022-09-21T13:17:26;96870.34;;;16.52;80.80
2397;BME280;1209;48.410;9.054;2022-09-21T13:20:02;96879.88;;;16.53;79.31
2397;BME280;1209;48.410;9.054;2022-09-21T13:22:33;96875.25;;;16.62;76.53
2397;BME280;1209;48.410;9.054;2022-09-21T13:30:32;96871.22;;;16.25;76.00
2397;BME280;1209;48.410;9.054;2022-09-21T13:32:58;96868.66;;;16.38;77.85
2397;BME280;1209;48.410;9.054;2022-09-21T13:38:30;96860.94;;;16.36;79.49
2397;BME280;1209;48.410;9.054;2022-09-21T13:44:03;96859.22;;;16.16;71.58
2397;BME280;1209;48.410;9.054;2022-09-21T13:49:15;96866.19;;;15.95;73.37
2397;BME280;1209;48.410;9.054;2022-09-21T13:52:04;96861.91;;;15.94;76.03
2397;BME280;1209;48.410;9.054;2022-09-21T13:54:35;96862.31;;;15.63;76.86
2397;BME280;1209;48.410;9.054;2022-09-21T13:57:17;96863.06;;;15.85;70.28
2397;BME280;1209;48.410;9.054;2022-09-21T13:59:47;96857.28;;;15.96;69.52
2397;BME280;1209;48.410;9.054;2022-09-21T14:02:36;96853.38;;;16.20;68.88
2397;BME280;1209;48.410;9.054;2022-09-21T14:05:17;96860.34;;;16.41;72.88
2397;BME280;1209;48.410;9.054;2022-09-21T14:07:44;96854.03;;;16.35;72.19
2397;BME280;1209;48.410;9.054;2022-09-21T14:10:17;96857.22;;;15.90;68.75
2397;BME280;1209;48.410;9.054;2022-09-21T14:12:43;96847.88;;;15.59;72.10
2397;BME280;1209;48.410;9.054;2022-09-21T14:17:42;96852.78;;;15.41;71.71
2397;BME280;1209;48.410;9.054;2022-09-21T14:20:28;96850.72;;;15.58;74.13
2397;BME280;1209;48.410;9.054;2022-09-21T14:25:51;96844.06;;;15.90;70.82
2397;BME280;1209;48.410;9.054;2022-09-21T14:28:27;96839.53;;;16.12;71.61
2397;BME280;1209;48.410;9.054;2022-09-21T14:31:02;96837.94;;;16.17;72.26
2397;BME280;1209;48.410;9.054;2022-09-21T14:33:40;96850.50;;;16.15;72.73
2397;BME280;1209;48.410;9.054;2022-09-21T14:36:08;96843.41;;;15.81;72.85
2397;BME280;1209;48.410;9.054;2022-09-21T14:38:54;96839.91;;;15.53;73.71
2397;BME280;1209;48.410;9.054;2022-09-21T14:41:23;96842.63;;;15.38;76.48
2397;BME280;1209;48.410;9.054;2022-09-21T14:43:51;96842.78;;;15.30;76.22
2397;BME280;1209;48.410;9.054;2022-09-21T14:46:41;96831.09;;;15.39;75.97
2397;BME280;1209;48.410;9.054;2022-09-21T14:49:30;96836.09;;;15.55;75.37
2397;BME280;1209;48.410;9.054;2022-09-21T14:57:27;96822.91;;;15.77;72.04
2397;BME280;1209;48.410;9.054;2022-09-21T15:00:16;96815.97;;;15.69;71.85
2397;BME280;1209;48.410;9.054;2022-09-21T15:02:48;96817.75;;;15.62;70.79
2397;BME280;1209;48.410;9.054;2022-09-21T15:05:30;96813.66;;;15.59;72.91
2397;BME280;1209;48.410;9.054;2022-09-21T15:11:17;96810.09;;;15.46;72.42
2397;BME280;1209;48.410;9.054;2022-09-21T15:14:09;96811.53;;;15.48;70.18
2397;BME280;1209;48.410;9.054;2022-09-21T15:16:42;96804.03;;;15.45;69.74
2397;BME280;1209;48.410;9.054;2022-09-21T15:21:49;96814.59;;;15.52;71.30
2397;BME280;1209;48.410;9.054;2022-09-21T15:24:21;96805.16;;;15.36;73.55
2397;BME280;1209;48.410;9.054;2022-09-21T15:26:49;96807.13;;;15.27;73.71
2397;BME280;1209;48.410;9.054;2022-09-21T15:29:27;96807.75;;;15.29;73.71
2397;BME280;1209;48.410;9.054;2022-09-21T15:31:53;96815.41;;;15.24;72.91
2397;BME280;1209;48.410;9.054;2022-09-21T15:34:19;96813.72;;;15.17;76.13
2397;BME280;1209;48.410;9.054;2022-09-21T15:36:45;96804.44;;;15.21;79.65
2397;BME280;1209;48.410;9.054;2022-09-21T15:41:47;96813.09;;;15.15;74.31
2397;BME280;1209;48.410;9.054;2022-09-21T15:44:22;96810.63;;;15.13;75.52
2397;BME280;1209;48.410;9.054;2022-09-21T15:46:50;96817.84;;;15.04;73.55
2397;BME280;1209;48.410;9.054;2022-09-21T15:49:18;96818.91;;;15.10;74.72
2397;BME280;1209;48.410;9.054;2022-09-21T15:51:48;96821.34;;;15.11;74.07
2397;BME280;1209;48.410;9.054;2022-09-21T15:54:59;96818.59;;;14.98;77.11
2397;BME280;1209;48.410;9.054;2022-09-21T15:57:41;96818.53;;;14.92;77.88
2397;BME280;1209;48.410;9.054;2022-09-21T16:02:39;96815.72;;;14.93;76.22
2397;BME280;1209;48.410;9.054;2022-09-21T16:05:10;96813.47;;;14.90;76.57